sensor_id;sensor_type;location;lat;lon;timestamp;P1;durP1;ratioP1;P2;durP2;ratioP2
6997;SDS011;3539;47.982;12.238;2023-04-06T00:02:16;8.73;;;5.80;;
6997;SDS011;3539;47.982;12.238;2023-04-06T00:04:44;7.63;;;5.93;;
6997;SDS011;3539;47.982;12.238;2023-04-06T00:07:11;9.27;;;6.10;;
6997;SDS011;3539;47.982;12.238;2023-04-06T00:09:37;11.07;;;6.43;;
6997;SDS011;3539;47.982;12.238;2023-04-06T00:12:04;9.33;;;6.10;;
6997;SDS011;3539;47.982;12.238;2023-04-06T00:14:32;9.80;;;5.63;;
6997;SDS011;3539;47.982;12.238;2023-04-06T00:16:59;11.50;;;6.43;;
6997;SDS011;3539;47.982;12.238;2023-04-06T00:19:25;9.50;;;6.10;;
6997;SDS011;3539;47.982;12.238;2023-04-06T00:21:54;9.20;;;5.70;;
6997;SDS011;3539;47.982;12.238;2023-04-06T00:24:21;10.43;;;6.00;;
6997;SDS011;3539;47.982;12.238;2023-04-06T00:26:47;10.00;;;5.70;;
6997;SDS011;3539;47.982;12.238;2023-04-06T00:29:14;8.60;;;5.13;;
6997;SDS011;3539;47.982;12.238;2023-04-06T00:31:41;9.20;;;5.60;;
6997;SDS011;3539;47.982;12.238;2023-04-06T00:34:09;8.40;;;5.67;;
6997;SDS011;3539;47.982;12.238;2023-04-06T00:36:36;10.50;;;6.00;;
6997;SDS011;3539;47.982;12.238;2023-04-06T00:39:04;7.43;;;6.00;;
6997;SDS011;3539;47.982;12.238;2023-04-06T00:41:31;10.30;;;6.50;;
6997;SDS011;3539;47.982;12.238;2023-04-06T00:43:58;8.53;;;6.17;;
6997;SDS011;3539;47.982;12.238;2023-04-06T00:46:25;11.07;;;6.03;;
6997;SDS011;3539;47.982;12.238;2023-04-06T00:48:52;12.33;;;6.00;;
6997;SDS011;3539;47.982;12.238;2023-04-06T00:51:18;10.67;;;5.70;;
6997;SDS011;3539;47.982;12.238;2023-04-06T00:53:45;9.03;;;5.87;;
6997;SDS011;3539;47.982;12.238;2023-04-06T00:56:13;7.77;;;5.47;;
6997;SDS011;3539;47.982;12.238;2023-04-06T00:58:40;9.07;;;5.73;;
6997;SDS011;3539;47.982;12.238;2023-04-06T01:01:07;10.00;;;5.90;;
6997;SDS011;3539;47.982;12.238;2023-04-06T01:03:34;7.97;;;5.43;;
6997;SDS011;3539;47.982;12.238;2023-04-06T01:06:01;10.47;;;5.87;;
6997;SDS011;3539;47.982;12.238;2023-04-06T01:08:28;8.83;;;5.50;;
6997;SDS011;3539;47.982;12.238;2023-04-06T01:10:55;9.83;;;6.30;;
6997;SDS011;3539;47.982;12.238;2023-04-06T01:13:23;8.50;;;6.33;;
6997;SDS011;3539;47.982;12.238;2023-04-06T01:15:50;8.07;;;5.30;;
6997;SDS011;3539;47.982;12.238;2023-04-06T01:18:17;8.57;;;5.57;;
6997;SDS011;3539;47.982;12.238;2023-04-06T01:20:43;7.60;;;5.63;;
6997;SDS011;3539;47.982;12.238;2023-04-06T01:23:12;9.87;;;5.60;;
6997;SDS011;3539;47.982;12.238;2023-04-06T01:25:38;10.63;;;6.13;;
6997;SDS011;3539;47.982;12.238;2023-04-06T01:28:05;8.47;;;6.07;;
6997;SDS011;3539;47.982;12.238;2023-04-06T01:30:32;8.57;;;5.60;;
6997;SDS011;3539;47.982;12.238;2023-04-06T01:32:59;11.80;;;6.03;;
6997;SDS011;3539;47.982;12.238;2023-04-06T01:35:26;8.53;;;5.30;;
6997;SDS011;3539;47.982;12.238;2023-04-06T01:37:53;8.63;;;5.30;;
6997;SDS011;3539;47.982;12.238;2023-04-06T01:40:21;7.13;;;5.50;;
6997;SDS011;3539;47.982;12.238;2023-04-06T01:46:05;11.77;;;5.60;;
6997;SDS011;3539;47.982;12.238;2023-04-06T01:48:32;11.37;;;6.17;;
6997;SDS011;3539;47.982;12.238;2023-04-06T01:50:58;12.30;;;5.50;;
6997;SDS011;3539;47.982;12.238;2023-04-06T01:53:25;9.83;;;5.30;;
6997;SDS011;3539;47.982;12.238;2023-04-06T01:55:53;7.83;;;5.73;;
6997;SDS011;3539;47.982;12.238;2023-04-06T01:58:20;10.30;;;5.67;;
6997;SDS011;3539;47.982;12.238;2023-04-06T02:00:47;7.50;;;4.93;;
6997;SDS011;3539;47.982;12.238;2023-04-06T02:03:13;8.90;;;5.37;;
6997;SDS011;3539;47.982;12.238;2023-04-06T02:05:40;8.63;;;5.17;;
6997;SDS011;3539;47.982;12.238;2023-04-06T02:08:07;7.70;;;4.90;;
6997;SDS011;3539;47.982;12.238;2023-04-06T02:10:34;8.87;;;5.57;;
6997;SDS011;3539;47.982;12.238;2023-04-06T02:13:02;9.07;;;5.60;;
6997;SDS011;3539;47.982;12.238;2023-04-06T02:15:29;9.00;;;5.30;;
6997;SDS011;3539;47.982;12.238;2023-04-06T02:17:56;10.00;;;5.10;;
6997;SDS011;3539;47.982;12.238;2023-04-06T02:20:23;9.03;;;5.43;;
6997;SDS011;3539;47.982;12.238;2023-04-06T02:22:50;7.57;;;5.47;;
6997;SDS011;3539;47.982;12.238;2023-04-06T02:25:17;8.90;;;6.20;;
6997;SDS011;3539;47.982;12.238;2023-04-06T02:27:44;9.43;;;6.07;;
6997;SDS011;3539;47.982;12.238;2023-04-06T02:30:12;7.87;;;5.67;;
6997;SDS011;3539;47.982;12.238;2023-04-06T02:32:39;11.47;;;5.90;;
6997;SDS011;3539;47.982;12.238;2023-04-06T02:35:06;9.77;;;6.57;;
6997;SDS011;3539;47.982;12.238;2023-04-06T02:37:33;10.63;;;7.10;;
6997;SDS011;3539;47.982;12.238;2023-04-06T02:40:00;9.77;;;6.77;;
6997;SDS011;3539;47.982;12.238;2023-04-06T02:42:27;11.03;;;6.60;;
6997;SDS011;3539;47.982;12.238;2023-04-06T02:44:54;8.67;;;5.97;;
6997;SDS011;3539;47.982;12.238;2023-04-06T02:47:22;10.33;;;6.63;;
6997;SDS011;3539;47.982;12.238;2023-04-06T02:49:49;8.93;;;5.87;;
6997;SDS011;3539;47.982;12.238;2023-04-06T02:52:16;6.23;;;5.60;;
6997;SDS011;3539;47.982;12.238;2023-04-06T02:54:43;6.13;;;5.10;;
6997;SDS011;3539;47.982;12.238;2023-04-06T02:57:10;7.87;;;5.37;;
6997;SDS011;3539;47.982;12.238;2023-04-06T02:59:37;6.73;;;5.53;;
6997;SDS011;3539;47.982;12.238;2023-04-06T03:02:03;8.17;;;4.93;;
6997;SDS011;3539;47.982;12.238;2023-04-06T03:04:31;9.13;;;5.27;;
6997;SDS011;3539;47.982;12.238;2023-04-06T03:06:58;9.07;;;5.47;;
6997;SDS011;3539;47.982;12.238;2023-04-06T03:09:25;7.83;;;5.60;;
6997;SDS011;3539;47.982;12.238;2023-04-06T03:11:52;10.00;;;6.03;;
6997;SDS011;3539;47.982;12.238;2023-04-06T03:14:19;9.27;;;6.03;;
6997;SDS011;3539;47.982;12.238;2023-04-06T03:16:47;9.60;;;6.20;;
6997;SDS011;3539;47.982;12.238;2023-04-06T03:19:14;8.03;;;5.73;;
6997;SDS011;3539;47.982;12.238;2023-04-06T03:21:42;9.67;;;6.30;;
6997;SDS011;3539;47.982;12.238;2023-04-06T03:24:09;7.17;;;5.07;;
6997;SDS011;3539;47.982;12.238;2023-04-06T03:26:36;10.13;;;5.27;;
6997;SDS011;3539;47.982;12.238;2023-04-06T03:29:03;7.60;;;4.97;;
6997;SDS011;3539;47.982;12.238;2023-04-06T03:31:29;8.67;;;5.30;;
6997;SDS011;3539;47.982;12.238;2023-04-06T03:33:56;10.00;;;7.47;;
6997;SDS011;3539;47.982;12.238;2023-04-06T03:36:24;19.40;;;9.33;;
6997;SDS011;3539;47.982;12.238;2023-04-06T03:38:52;20.73;;;9.30;;
6997;SDS011;3539;47.982;12.238;2023-04-06T03:41:19;15.93;;;8.60;;
6997;SDS011;3539;47.982;12.238;2023-04-06T03:43:46;10.53;;;7.00;;
6997;SDS011;3539;47.982;12.238;2023-04-06T03:46:13;9.70;;;6.57;;
6997;SDS011;3539;47.982;12.238;2023-04-06T03:48:40;7.53;;;6.13;;
6997;SDS011;3539;47.982;12.238;2023-04-06T03:51:07;8.23;;;6.57;;
6997;SDS011;3539;47.982;12.238;2023-04-06T03:53:34;9.60;;;6.10;;
6997;SDS011;3539;47.982;12.238;2023-04-06T03:56:03;10.03;;;6.30;;
6997;SDS011;3539;47.982;12.238;2023-04-06T03:58:30;8.90;;;6.17;;
6997;SDS011;3539;47.982;12.238;2023-04-06T04:00:57;8.90;;;5.97;;
6997;SDS011;3539;47.982;12.238;2023-04-06T04:03:24;7.83;;;5.93;;
6997;SDS011;3539;47.982;12.238;2023-04-06T04:05:52;8.73;;;5.87;;
6997;SDS011;3539;47.982;12.238;2023-04-06T04:08:20;8.77;;;5.83;;
6997;SDS011;3539;47.982;12.238;2023-04-06T04:10:46;10.27;;;6.10;;
6997;SDS011;3539;47.982;12.238;2023-04-06T04:13:15;7.30;;;5.83;;
6997;SDS011;3539;47.982;12.238;2023-04-06T04:15:42;10.03;;;6.40;;
6997;SDS011;3539;47.982;12.238;2023-04-06T04:18:09;8.70;;;6.20;;
6997;SDS011;3539;47.982;12.238;2023-04-06T04:20:36;10.37;;;6.73;;
6997;SDS011;3539;47.982;12.238;2023-04-06T04:23:02;9.70;;;6.20;;
6997;SDS011;3539;47.982;12.238;2023-04-06T04:25:29;7.83;;;6.40;;
6997;SDS011;3539;47.982;12.238;2023-04-06T04:27:56;8.77;;;6.27;;
6997;SDS011;3539;47.982;12.238;2023-04-06T04:30:24;17.60;;;6.37;;
6997;SDS011;3539;47.982;12.238;2023-04-06T04:32:51;9.67;;;5.60;;
6997;SDS011;3539;47.982;12.238;2023-04-06T04:35:18;8.83;;;6.10;;
6997;SDS011;3539;47.982;12.238;2023-04-06T04:37:45;6.53;;;5.50;;
6997;SDS011;3539;47.982;12.238;2023-04-06T04:40:11;9.17;;;5.23;;
6997;SDS011;3539;47.982;12.238;2023-04-06T04:42:38;7.00;;;5.27;;
6997;SDS011;3539;47.982;12.238;2023-04-06T04:45:05;10.23;;;6.07;;
6997;SDS011;3539;47.982;12.238;2023-04-06T04:47:34;9.17;;;6.07;;
6997;SDS011;3539;47.982;12.238;2023-04-06T04:50:01;14.03;;;5.73;;
6997;SDS011;3539;47.982;12.238;2023-04-06T04:52:28;11.30;;;7.20;;
6997;SDS011;3539;47.982;12.238;2023-04-06T04:54:54;13.53;;;8.60;;
6997;SDS011;3539;47.982;12.238;2023-04-06T04:57:21;10.57;;;6.97;;
6997;SDS011;3539;47.982;12.238;2023-04-06T04:59:48;10.17;;;6.20;;
6997;SDS011;3539;47.982;12.238;2023-04-06T05:02:16;7.97;;;5.67;;
6997;SDS011;3539;47.982;12.238;2023-04-06T05:04:44;7.43;;;6.10;;
6997;SDS011;3539;47.982;12.238;2023-04-06T05:07:11;9.20;;;5.70;;
6997;SDS011;3539;47.982;12.238;2023-04-06T05:09:37;9.97;;;6.50;;
6997;SDS011;3539;47.982;12.238;2023-04-06T05:12:04;8.53;;;5.30;;
6997;SDS011;3539;47.982;12.238;2023-04-06T05:14:31;8.80;;;6.20;;
6997;SDS011;3539;47.982;12.238;2023-04-06T05:16:58;6.97;;;5.40;;
6997;SDS011;3539;47.982;12.238;2023-04-06T05:19:25;14.73;;;8.17;;
6997;SDS011;3539;47.982;12.238;2023-04-06T05:21:53;15.60;;;10.07;;
6997;SDS011;3539;47.982;12.238;2023-04-06T05:24:20;8.30;;;5.90;;
6997;SDS011;3539;47.982;12.238;2023-04-06T05:26:47;7.63;;;6.53;;
6997;SDS011;3539;47.982;12.238;2023-04-06T05:29:14;10.07;;;6.90;;
6997;SDS011;3539;47.982;12.238;2023-04-06T05:31:41;10.07;;;7.50;;
6997;SDS011;3539;47.982;12.238;2023-04-06T05:34:08;9.93;;;7.70;;
6997;SDS011;3539;47.982;12.238;2023-04-06T05:36:36;11.20;;;8.10;;
6997;SDS011;3539;47.982;12.238;2023-04-06T05:39:04;12.50;;;7.87;;
6997;SDS011;3539;47.982;12.238;2023-04-06T05:41:31;11.40;;;8.17;;
6997;SDS011;3539;47.982;12.238;2023-04-06T05:43:57;11.30;;;8.20;;
6997;SDS011;3539;47.982;12.238;2023-04-06T05:46:24;10.90;;;7.50;;
6997;SDS011;3539;47.982;12.238;2023-04-06T05:48:51;12.20;;;8.17;;
6997;SDS011;3539;47.982;12.238;2023-04-06T05:51:18;12.73;;;8.80;;
6997;SDS011;3539;47.982;12.238;2023-04-06T05:53:45;10.83;;;8.50;;
6997;SDS011;3539;47.982;12.238;2023-04-06T05:56:13;10.87;;;8.20;;
6997;SDS011;3539;47.982;12.238;2023-04-06T05:58:40;10.70;;;8.70;;
6997;SDS011;3539;47.982;12.238;2023-04-06T06:01:07;10.53;;;8.43;;
6997;SDS011;3539;47.982;12.238;2023-04-06T06:03:35;11.40;;;8.73;;
6997;SDS011;3539;47.982;12.238;2023-04-06T06:06:02;10.87;;;8.50;;
6997;SDS011;3539;47.982;12.238;2023-04-06T06:08:29;13.07;;;9.63;;
6997;SDS011;3539;47.982;12.238;2023-04-06T06:10:56;12.43;;;9.73;;
6997;SDS011;3539;47.982;12.238;2023-04-06T06:13:24;15.80;;;9.00;;
6997;SDS011;3539;47.982;12.238;2023-04-06T06:15:51;12.17;;;9.37;;
6997;SDS011;3539;47.982;12.238;2023-04-06T06:18:18;14.03;;;10.83;;
6997;SDS011;3539;47.982;12.238;2023-04-06T06:20:45;13.67;;;10.37;;
6997;SDS011;3539;47.982;12.238;2023-04-06T06:23:11;14.70;;;9.53;;
6997;SDS011;3539;47.982;12.238;2023-04-06T06:25:38;10.33;;;8.60;;
6997;SDS011;3539;47.982;12.238;2023-04-06T06:28:05;12.17;;;8.90;;
6997;SDS011;3539;47.982;12.238;2023-04-06T06:30:36;13.47;;;8.87;;
6997;SDS011;3539;47.982;12.238;2023-04-06T06:33:03;11.20;;;9.13;;
6997;SDS011;3539;47.982;12.238;2023-04-06T06:35:30;12.90;;;9.30;;
6997;SDS011;3539;47.982;12.238;2023-04-06T06:37:57;11.93;;;9.47;;
6997;SDS011;3539;47.982;12.238;2023-04-06T06:40:24;12.90;;;9.17;;
6997;SDS011;3539;47.982;12.238;2023-04-06T06:42:52;12.53;;;9.07;;
6997;SDS011;3539;47.982;12.238;2023-04-06T06:45:18;9.80;;;8.03;;
6997;SDS011;3539;47.982;12.238;2023-04-06T06:47:47;11.60;;;8.77;;
6997;SDS011;3539;47.982;12.238;2023-04-06T06:50:14;10.70;;;9.00;;
6997;SDS011;3539;47.982;12.238;2023-04-06T06:52:41;11.33;;;8.33;;
6997;SDS011;3539;47.982;12.238;2023-04-06T06:55:08;10.90;;;7.77;;
6997;SDS011;3539;47.982;12.238;2023-04-06T06:57:36;8.83;;;7.93;;
6997;SDS011;3539;47.982;12.238;2023-04-06T07:00:03;8.57;;;6.97;;
6997;SDS011;3539;47.982;12.238;2023-04-06T07:02:33;12.83;;;7.77;;
6997;SDS011;3539;47.982;12.238;2023-04-06T07:05:02;9.23;;;7.37;;
6997;SDS011;3539;47.982;12.238;2023-04-06T07:07:29;7.83;;;7.03;;
6997;SDS011;3539;47.982;12.238;2023-04-06T07:09:57;10.13;;;6.83;;
6997;SDS011;3539;47.982;12.238;2023-04-06T07:12:24;9.97;;;7.00;;
6997;SDS011;3539;47.982;12.238;2023-04-06T07:14:51;8.43;;;7.50;;
6997;SDS011;3539;47.982;12.238;2023-04-06T07:17:18;9.90;;;7.43;;
6997;SDS011;3539;47.982;12.238;2023-04-06T07:19:45;10.93;;;7.70;;
6997;SDS011;3539;47.982;12.238;2023-04-06T07:22:13;11.63;;;7.63;;
6997;SDS011;3539;47.982;12.238;2023-04-06T07:24:40;10.17;;;7.17;;
6997;SDS011;3539;47.982;12.238;2023-04-06T07:27:06;8.33;;;6.40;;
6997;SDS011;3539;47.982;12.238;2023-04-06T07:29:33;10.43;;;6.70;;
6997;SDS011;3539;47.982;12.238;2023-04-06T07:32:00;8.80;;;6.80;;
6997;SDS011;3539;47.982;12.238;2023-04-06T07:34:27;11.67;;;7.80;;
6997;SDS011;3539;47.982;12.238;2023-04-06T07:36:54;9.70;;;7.93;;
6997;SDS011;3539;47.982;12.238;2023-04-06T07:39:23;9.30;;;6.90;;
6997;SDS011;3539;47.982;12.238;2023-04-06T07:41:51;7.37;;;6.67;;
6997;SDS011;3539;47.982;12.238;2023-04-06T07:44:18;7.10;;;6.40;;
6997;SDS011;3539;47.982;12.238;2023-04-06T07:46:45;9.73;;;7.30;;
6997;SDS011;3539;47.982;12.238;2023-04-06T07:49:11;7.87;;;6.10;;
6997;SDS011;3539;47.982;12.238;2023-04-06T07:51:38;6.73;;;6.03;;
6997;SDS011;3539;47.982;12.238;2023-04-06T07:54:05;7.17;;;6.13;;
6997;SDS011;3539;47.982;12.238;2023-04-06T07:56:33;8.83;;;5.70;;
6997;SDS011;3539;47.982;12.238;2023-04-06T07:59:00;7.37;;;5.87;;
6997;SDS011;3539;47.982;12.238;2023-04-06T08:01:28;6.90;;;6.03;;
6997;SDS011;3539;47.982;12.238;2023-04-06T08:03:55;7.73;;;5.83;;
6997;SDS011;3539;47.982;12.238;2023-04-06T08:06:22;6.40;;;5.73;;
6997;SDS011;3539;47.982;12.238;2023-04-06T08:08:49;8.17;;;5.83;;
6997;SDS011;3539;47.982;12.238;2023-04-06T08:11:16;6.67;;;5.97;;
6997;SDS011;3539;47.982;12.238;2023-04-06T08:13:44;7.30;;;5.60;;
6997;SDS011;3539;47.982;12.238;2023-04-06T08:16:11;8.33;;;5.93;;
6997;SDS011;3539;47.982;12.238;2023-04-06T08:18:37;6.30;;;5.70;;
6997;SDS011;3539;47.982;12.238;2023-04-06T08:21:04;5.47;;;4.97;;
6997;SDS011;3539;47.982;12.238;2023-04-06T08:23:31;6.10;;;5.40;;
6997;SDS011;3539;47.982;12.238;2023-04-06T08:25:58;7.10;;;5.77;;
6997;SDS011;3539;47.982;12.238;2023-04-06T08:28:25;6.43;;;5.77;;
6997;SDS011;3539;47.982;12.238;2023-04-06T08:30:53;5.73;;;5.23;;
6997;SDS011;3539;47.982;12.238;2023-04-06T08:33:20;7.30;;;5.77;;
6997;SDS011;3539;47.982;12.238;2023-04-06T08:35:47;6.77;;;5.70;;
6997;SDS011;3539;47.982;12.238;2023-04-06T08:38:14;7.10;;;6.00;;
6997;SDS011;3539;47.982;12.238;2023-04-06T08:40:40;6.63;;;5.67;;
6997;SDS011;3539;47.982;12.238;2023-04-06T08:43:10;6.77;;;5.33;;
6997;SDS011;3539;47.982;12.238;2023-04-06T08:45:40;6.90;;;5.40;;
6997;SDS011;3539;47.982;12.238;2023-04-06T08:48:09;8.83;;;6.17;;
6997;SDS011;3539;47.982;12.238;2023-04-06T08:50:38;7.03;;;5.60;;
6997;SDS011;3539;47.982;12.238;2023-04-06T08:53:06;6.73;;;5.50;;
6997;SDS011;3539;47.982;12.238;2023-04-06T08:55:33;7.00;;;5.43;;
6997;SDS011;3539;47.982;12.238;2023-04-06T08:58:00;7.17;;;5.37;;
6997;SDS011;3539;47.982;12.238;2023-04-06T09:00:27;7.73;;;5.20;;
6997;SDS011;3539;47.982;12.238;2023-04-06T09:02:54;6.87;;;5.23;;
6997;SDS011;3539;47.982;12.238;2023-04-06T09:05:24;6.90;;;5.30;;
6997;SDS011;3539;47.982;12.238;2023-04-06T09:07:51;9.20;;;5.63;;
6997;SDS011;3539;47.982;12.238;2023-04-06T09:10:18;6.07;;;5.33;;
6997;SDS011;3539;47.982;12.238;2023-04-06T09:12:46;6.07;;;5.23;;
6997;SDS011;3539;47.982;12.238;2023-04-06T09:15:19;8.10;;;5.00;;
6997;SDS011;3539;47.982;12.238;2023-04-06T09:17:46;6.33;;;5.03;;
6997;SDS011;3539;47.982;12.238;2023-04-06T09:20:13;5.90;;;5.30;;
6997;SDS011;3539;47.982;12.238;2023-04-06T09:22:43;8.90;;;5.47;;
6997;SDS011;3539;47.982;12.238;2023-04-06T09:25:17;7.07;;;5.00;;
6997;SDS011;3539;47.982;12.238;2023-04-06T09:27:45;7.47;;;5.27;;
6997;SDS011;3539;47.982;12.238;2023-04-06T09:30:15;8.33;;;5.73;;
6997;SDS011;3539;47.982;12.238;2023-04-06T09:32:47;6.67;;;5.97;;
6997;SDS011;3539;47.982;12.238;2023-04-06T09:35:15;6.57;;;5.60;;
6997;SDS011;3539;47.982;12.238;2023-04-06T09:37:43;6.97;;;5.07;;
6997;SDS011;3539;47.982;12.238;2023-04-06T09:40:11;5.83;;;5.20;;
6997;SDS011;3539;47.982;12.238;2023-04-06T09:42:40;5.47;;;4.97;;
6997;SDS011;3539;47.982;12.238;2023-04-06T09:45:07;6.37;;;5.23;;
6997;SDS011;3539;47.982;12.238;2023-04-06T09:47:35;6.07;;;5.13;;
6997;SDS011;3539;47.982;12.238;2023-04-06T09:50:03;5.80;;;5.20;;
6997;SDS011;3539;47.982;12.238;2023-04-06T09:52:30;6.63;;;4.80;;
6997;SDS011;3539;47.982;12.238;2023-04-06T09:55:02;6.57;;;5.10;;
6997;SDS011;3539;47.982;12.238;2023-04-06T09:57:32;5.20;;;4.60;;
6997;SDS011;3539;47.982;12.238;2023-04-06T10:00:02;6.37;;;5.07;;
6997;SDS011;3539;47.982;12.238;2023-04-06T10:02:35;6.30;;;5.00;;
6997;SDS011;3539;47.982;12.238;2023-04-06T10:05:07;6.43;;;4.93;;
6997;SDS011;3539;47.982;12.238;2023-04-06T10:07:36;16.13;;;4.70;;
6997;SDS011;3539;47.982;12.238;2023-04-06T10:10:05;6.53;;;5.37;;
6997;SDS011;3539;47.982;12.238;2023-04-06T10:12:33;8.87;;;5.50;;
6997;SDS011;3539;47.982;12.238;2023-04-06T10:15:00;5.80;;;4.77;;
6997;SDS011;3539;47.982;12.238;2023-04-06T10:17:26;6.37;;;5.57;;
6997;SDS011;3539;47.982;12.238;2023-04-06T10:19:55;6.63;;;5.23;;
6997;SDS011;3539;47.982;12.238;2023-04-06T10:25:27;6.13;;;5.47;;
6997;SDS011;3539;47.982;12.238;2023-04-06T10:28:00;6.67;;;5.33;;
6997;SDS011;3539;47.982;12.238;2023-04-06T10:30:28;8.27;;;5.23;;
6997;SDS011;3539;47.982;12.238;2023-04-06T10:32:56;6.40;;;4.97;;
6997;SDS011;3539;47.982;12.238;2023-04-06T10:38:15;6.03;;;5.43;;
6997;SDS011;3539;47.982;12.238;2023-04-06T10:40:48;7.93;;;5.87;;
6997;SDS011;3539;47.982;12.238;2023-04-06T10:43:18;10.17;;;5.20;;
6997;SDS011;3539;47.982;12.238;2023-04-06T10:45:52;7.07;;;5.77;;
6997;SDS011;3539;47.982;12.238;2023-04-06T10:48:21;7.90;;;5.83;;
6997;SDS011;3539;47.982;12.238;2023-04-06T10:50:49;5.93;;;4.93;;
6997;SDS011;3539;47.982;12.238;2023-04-06T10:53:21;6.53;;;5.63;;
6997;SDS011;3539;47.982;12.238;2023-04-06T10:55:50;5.90;;;5.30;;
6997;SDS011;3539;47.982;12.238;2023-04-06T10:58:18;7.13;;;5.30;;
6997;SDS011;3539;47.982;12.238;2023-04-06T11:00:45;5.53;;;5.03;;
6997;SDS011;3539;47.982;12.238;2023-04-06T11:03:12;7.80;;;5.33;;
6997;SDS011;3539;47.982;12.238;2023-04-06T11:05:43;5.93;;;5.33;;
6997;SDS011;3539;47.982;12.238;2023-04-06T11:08:10;6.57;;;5.73;;
6997;SDS011;3539;47.982;12.238;2023-04-06T11:10:37;6.93;;;5.87;;
6997;SDS011;3539;47.982;12.238;2023-04-06T11:13:05;6.53;;;5.53;;
6997;SDS011;3539;47.982;12.238;2023-04-06T11:15:33;7.23;;;5.47;;
6997;SDS011;3539;47.982;12.238;2023-04-06T11:18:03;7.93;;;5.40;;
6997;SDS011;3539;47.982;12.238;2023-04-06T11:20:30;8.40;;;5.63;;
6997;SDS011;3539;47.982;12.238;2023-04-06T11:22:56;6.77;;;5.03;;
6997;SDS011;3539;47.982;12.238;2023-04-06T11:25:24;6.33;;;5.40;;
6997;SDS011;3539;47.982;12.238;2023-04-06T11:27:52;7.00;;;5.90;;
6997;SDS011;3539;47.982;12.238;2023-04-06T11:30:21;6.33;;;5.60;;
6997;SDS011;3539;47.982;12.238;2023-04-06T11:32:48;6.43;;;5.17;;
6997;SDS011;3539;47.982;12.238;2023-04-06T11:35:24;7.83;;;5.50;;
6997;SDS011;3539;47.982;12.238;2023-04-06T11:41:13;6.23;;;5.43;;
6997;SDS011;3539;47.982;12.238;2023-04-06T11:43:45;6.33;;;5.20;;
6997;SDS011;3539;47.982;12.238;2023-04-06T11:46:16;7.53;;;5.83;;
6997;SDS011;3539;47.982;12.238;2023-04-06T11:48:44;5.93;;;5.40;;
6997;SDS011;3539;47.982;12.238;2023-04-06T11:51:12;6.80;;;5.53;;
6997;SDS011;3539;47.982;12.238;2023-04-06T11:53:43;7.17;;;5.63;;
6997;SDS011;3539;47.982;12.238;2023-04-06T11:56:11;7.67;;;5.53;;
6997;SDS011;3539;47.982;12.238;2023-04-06T11:58:37;5.97;;;5.37;;
6997;SDS011;3539;47.982;12.238;2023-04-06T12:01:04;8.00;;;5.47;;
6997;SDS011;3539;47.982;12.238;2023-04-06T12:03:33;6.13;;;5.43;;
6997;SDS011;3539;47.982;12.238;2023-04-06T12:05:59;6.43;;;5.40;;
6997;SDS011;3539;47.982;12.238;2023-04-06T12:08:26;6.20;;;5.60;;
6997;SDS011;3539;47.982;12.238;2023-04-06T12:10:53;8.60;;;5.73;;
6997;SDS011;3539;47.982;12.238;2023-04-06T12:13:20;6.63;;;5.23;;
6997;SDS011;3539;47.982;12.238;2023-04-06T12:15:47;5.93;;;5.33;;
6997;SDS011;3539;47.982;12.238;2023-04-06T12:18:14;6.80;;;5.17;;
6997;SDS011;3539;47.982;12.238;2023-04-06T12:20:43;6.03;;;5.43;;
6997;SDS011;3539;47.982;12.238;2023-04-06T12:23:10;6.27;;;5.67;;
6997;SDS011;3539;47.982;12.238;2023-04-06T12:25:38;6.13;;;5.53;;
6997;SDS011;3539;47.982;12.238;2023-04-06T12:28:05;7.37;;;5.87;;
6997;SDS011;3539;47.982;12.238;2023-04-06T12:30:34;8.73;;;5.63;;
6997;SDS011;3539;47.982;12.238;2023-04-06T12:33:01;6.07;;;5.43;;
6997;SDS011;3539;47.982;12.238;2023-04-06T12:35:28;7.27;;;5.73;;
6997;SDS011;3539;47.982;12.238;2023-04-06T12:37:57;6.03;;;5.03;;
6997;SDS011;3539;47.982;12.238;2023-04-06T12:40:23;5.73;;;5.20;;
6997;SDS011;3539;47.982;12.238;2023-04-06T12:42:50;6.47;;;5.50;;
6997;SDS011;3539;47.982;12.238;2023-04-06T12:45:17;7.33;;;5.73;;
6997;SDS011;3539;47.982;12.238;2023-04-06T12:47:44;6.13;;;5.53;;
6997;SDS011;3539;47.982;12.238;2023-04-06T12:50:11;6.63;;;5.73;;
6997;SDS011;3539;47.982;12.238;2023-04-06T12:52:37;5.90;;;5.30;;
6997;SDS011;3539;47.982;12.238;2023-04-06T12:55:06;8.17;;;5.67;;
6997;SDS011;3539;47.982;12.238;2023-04-06T12:57:34;7.83;;;5.70;;
6997;SDS011;3539;47.982;12.238;2023-04-06T13:00:02;5.87;;;5.27;;
6997;SDS011;3539;47.982;12.238;2023-04-06T13:02:29;6.20;;;5.30;;
6997;SDS011;3539;47.982;12.238;2023-04-06T13:04:56;6.13;;;5.53;;
6997;SDS011;3539;47.982;12.238;2023-04-06T13:07:23;6.10;;;5.50;;
6997;SDS011;3539;47.982;12.238;2023-04-06T13:09:51;7.27;;;5.50;;
6997;SDS011;3539;47.982;12.238;2023-04-06T13:12:20;6.10;;;5.37;;
6997;SDS011;3539;47.982;12.238;2023-04-06T13:14:47;6.57;;;5.50;;
6997;SDS011;3539;47.982;12.238;2023-04-06T13:17:17;6.23;;;5.30;;
6997;SDS011;3539;47.982;12.238;2023-04-06T13:19:44;5.83;;;5.17;;
6997;SDS011;3539;47.982;12.238;2023-04-06T13:22:11;5.87;;;5.27;;
6997;SDS011;3539;47.982;12.238;2023-04-06T13:24:38;5.87;;;5.33;;
6997;SDS011;3539;47.982;12.238;2023-04-06T13:27:05;10.00;;;5.57;;
6997;SDS011;3539;47.982;12.238;2023-04-06T13:29:33;7.03;;;5.50;;
6997;SDS011;3539;47.982;12.238;2023-04-06T13:32:00;7.23;;;5.10;;
6997;SDS011;3539;47.982;12.238;2023-04-06T13:34:27;5.43;;;4.93;;
6997;SDS011;3539;47.982;12.238;2023-04-06T13:36:54;6.40;;;5.27;;
6997;SDS011;3539;47.982;12.238;2023-04-06T13:39:21;5.67;;;5.10;;
6997;SDS011;3539;47.982;12.238;2023-04-06T13:41:48;5.60;;;5.00;;
6997;SDS011;3539;47.982;12.238;2023-04-06T13:44:15;7.57;;;5.30;;
6997;SDS011;3539;47.982;12.238;2023-04-06T13:46:43;5.67;;;5.07;;
6997;SDS011;3539;47.982;12.238;2023-04-06T13:49:10;5.57;;;5.07;;
6997;SDS011;3539;47.982;12.238;2023-04-06T13:51:37;5.57;;;5.00;;
6997;SDS011;3539;47.982;12.238;2023-04-06T13:54:04;5.93;;;5.20;;
6997;SDS011;3539;47.982;12.238;2023-04-06T13:56:31;6.97;;;5.07;;
6997;SDS011;3539;47.982;12.238;2023-04-06T13:58:57;5.77;;;4.83;;
6997;SDS011;3539;47.982;12.238;2023-04-06T14:01:24;5.43;;;4.80;;
6997;SDS011;3539;47.982;12.238;2023-04-06T14:03:53;5.50;;;5.00;;
6997;SDS011;3539;47.982;12.238;2023-04-06T14:06:20;7.10;;;5.63;;
6997;SDS011;3539;47.982;12.238;2023-04-06T14:08:46;5.97;;;5.37;;
6997;SDS011;3539;47.982;12.238;2023-04-06T14:11:13;5.23;;;4.73;;
6997;SDS011;3539;47.982;12.238;2023-04-06T14:13:41;5.50;;;4.87;;
6997;SDS011;3539;47.982;12.238;2023-04-06T14:16:08;6.97;;;5.53;;
6997;SDS011;3539;47.982;12.238;2023-04-06T14:18:35;6.07;;;5.37;;
6997;SDS011;3539;47.982;12.238;2023-04-06T14:21:04;7.13;;;5.70;;
6997;SDS011;3539;47.982;12.238;2023-04-06T14:23:31;6.87;;;5.10;;
6997;SDS011;3539;47.982;12.238;2023-04-06T14:26:01;6.17;;;5.17;;
6997;SDS011;3539;47.982;12.238;2023-04-06T14:28:29;6.53;;;5.40;;
6997;SDS011;3539;47.982;12.238;2023-04-06T14:30:56;7.77;;;5.87;;
6997;SDS011;3539;47.982;12.238;2023-04-06T14:33:23;6.50;;;5.37;;
6997;SDS011;3539;47.982;12.238;2023-04-06T14:35:50;6.10;;;5.40;;
6997;SDS011;3539;47.982;12.238;2023-04-06T14:38:18;6.00;;;5.03;;
6997;SDS011;3539;47.982;12.238;2023-04-06T14:40:45;21.13;;;6.73;;
6997;SDS011;3539;47.982;12.238;2023-04-06T14:43:11;10.50;;;6.03;;
6997;SDS011;3539;47.982;12.238;2023-04-06T14:45:38;6.80;;;5.50;;
6997;SDS011;3539;47.982;12.238;2023-04-06T14:48:05;6.50;;;5.63;;
6997;SDS011;3539;47.982;12.238;2023-04-06T14:50:32;6.77;;;5.60;;
6997;SDS011;3539;47.982;12.238;2023-04-06T14:52:59;6.53;;;5.07;;
6997;SDS011;3539;47.982;12.238;2023-04-06T14:55:28;7.00;;;5.57;;
6997;SDS011;3539;47.982;12.238;2023-04-06T14:57:54;7.57;;;5.30;;
6997;SDS011;3539;47.982;12.238;2023-04-06T15:00:24;6.17;;;5.30;;
6997;SDS011;3539;47.982;12.238;2023-04-06T15:02:51;6.17;;;5.23;;
6997;SDS011;3539;47.982;12.238;2023-04-06T15:05:18;8.13;;;5.30;;
6997;SDS011;3539;47.982;12.238;2023-04-06T15:07:45;5.80;;;5.20;;
6997;SDS011;3539;47.982;12.238;2023-04-06T15:10:11;6.53;;;5.20;;
6997;SDS011;3539;47.982;12.238;2023-04-06T15:12:40;5.70;;;4.57;;